createdAt,value
2018-11-02T00:01:33.717Z,12.70
2018-11-02T00:04:03.457Z,13.00
2018-11-02T00:06:34.215Z,12.80
2018-11-02T00:09:03.396Z,13.13
2018-11-02T00:11:32.953Z,13.60
2018-11-02T00:14:02.428Z,13.77
2018-11-02T00:16:31.875Z,13.33
2018-11-02T00:19:01.811Z,13.13
2018-11-02T00:21:31.519Z,14.10
2018-11-02T00:24:01.059Z,15.00
2018-11-02T00:26:30.695Z,13.80
2018-11-02T00:28:59.981Z,14.13
2018-11-02T00:31:29.266Z,13.97
2018-11-02T00:33:59.040Z,15.43
2018-11-02T00:36:28.307Z,13.90
2018-11-02T00:38:57.831Z,13.87
2018-11-02T00:41:27.494Z,14.73
2018-11-02T00:43:56.900Z,15.30
2018-11-02T00:46:26.207Z,15.10
2018-11-02T00:48:55.963Z,15.53
2018-11-02T00:51:25.202Z,15.60
2018-11-02T00:53:54.441Z,14.83
2018-11-02T00:56:24.200Z,14.60
2018-11-02T00:58:53.504Z,16.03
2018-11-02T01:01:22.902Z,14.90
2018-11-02T01:03:52.458Z,14.97
2018-11-02T01:06:22.001Z,15.80
2018-11-02T01:08:51.386Z,15.93
2018-11-02T01:11:21.248Z,16.13
2018-11-02T01:13:50.577Z,16.00
2018-11-02T01:16:19.917Z,16.57
2018-11-02T01:18:49.597Z,16.03
2018-11-02T01:21:18.960Z,16.47
2018-11-02T01:23:48.404Z,17.20
2018-11-02T01:26:18.078Z,16.60
2018-11-02T01:28:47.780Z,16.97
2018-11-02T01:31:17.197Z,16.30
2018-11-02T01:33:46.794Z,16.70
2018-11-02T01:36:16.261Z,17.23
2018-11-02T01:38:45.501Z,16.53
2018-11-02T01:41:15.157Z,17.03
2018-11-02T01:43:44.524Z,16.47
2018-11-02T01:46:14.380Z,16.97
2018-11-02T01:48:44.054Z,16.90
2018-11-02T01:51:13.378Z,16.70
2018-11-02T01:53:42.759Z,17.93
2018-11-02T01:56:12.303Z,16.57
2018-11-02T01:58:41.612Z,16.87
2018-11-02T02:01:10.669Z,16.40
2018-11-02T02:03:40.253Z,16.13
2018-11-02T02:06:09.591Z,17.20
2018-11-02T02:08:38.791Z,16.50
2018-11-02T02:11:08.374Z,17.17
2018-11-02T02:13:37.782Z,15.93
2018-11-02T02:16:07.139Z,16.90
2018-11-02T02:18:36.777Z,16.10
2018-11-02T02:21:06.169Z,16.70
2018-11-02T02:23:35.307Z,16.23
2018-11-02T02:26:05.305Z,15.93
2018-11-02T02:28:34.616Z,16.27
2018-11-02T02:31:03.946Z,16.80
2018-11-02T02:33:33.891Z,16.40
2018-11-02T02:36:03.464Z,16.53
2018-11-02T02:38:32.648Z,15.50
2018-11-02T02:41:02.639Z,15.60
2018-11-02T02:43:32.136Z,15.30
2018-11-02T02:46:01.357Z,15.97
2018-11-02T02:48:30.897Z,16.03
2018-11-02T02:51:00.089Z,16.37
2018-11-02T02:53:29.293Z,16.23
2018-11-02T02:55:58.943Z,15.03
2018-11-02T02:58:28.323Z,14.53
2018-11-02T03:00:57.619Z,16.07
2018-11-02T03:03:27.222Z,16.93
2018-11-02T03:05:56.458Z,16.37
2018-11-02T03:08:25.807Z,16.47
2018-11-02T03:10:55.492Z,15.67
2018-11-02T03:13:24.798Z,15.37
2018-11-02T03:15:54.065Z,14.83
2018-11-02T03:18:23.727Z,15.50
2018-11-02T03:20:52.978Z,15.57
2018-11-02T03:23:22.325Z,16.00
2018-11-02T03:25:51.680Z,15.67
2018-11-02T03:28:20.855Z,16.57
2018-11-02T03:30:50.116Z,15.90
2018-11-02T03:33:19.545Z,16.57
2018-11-02T03:35:48.834Z,16.57
2018-11-02T03:38:18.594Z,16.33
2018-11-02T03:40:48.510Z,17.40
2018-11-02T03:43:17.977Z,17.40
2018-11-02T03:45:47.416Z,16.23
2018-11-02T03:48:17.176Z,16.53
2018-11-02T03:50:46.540Z,17.37
2018-11-02T03:53:16.181Z,16.17
2018-11-02T03:55:45.976Z,17.70
2018-11-02T03:58:15.440Z,17.40
2018-11-02T04:00:45.913Z,18.47
2018-11-02T04:03:15.529Z,17.90
2018-11-02T04:05:44.866Z,17.13
2018-11-02T04:08:14.329Z,20.70
2018-11-02T04:10:43.708Z,20.20
2018-11-02T04:13:13.002Z,20.07
2018-11-02T04:15:42.462Z,20.20
2018-11-02T04:18:11.628Z,20.30
2018-11-02T04:20:40.930Z,22.60
2018-11-02T04:23:10.225Z,21.40
2018-11-02T04:25:39.695Z,23.23
2018-11-02T04:28:08.980Z,23.67
2018-11-02T04:30:38.376Z,24.13
2018-11-02T04:33:07.866Z,23.83
2018-11-02T04:35:36.927Z,24.90
2018-11-02T04:38:06.317Z,25.87
2018-11-02T04:40:35.816Z,24.93
2018-11-02T04:43:05.025Z,26.67
2018-11-02T04:45:40.585Z,26.13
2018-11-02T04:48:12.103Z,26.00
2018-11-02T04:50:41.930Z,27.03
2018-11-02T04:53:11.020Z,26.97
2018-11-02T04:55:40.439Z,27.73
2018-11-02T04:58:10.112Z,27.93
2018-11-02T05:00:39.642Z,26.80
2018-11-02T05:03:08.916Z,27.73
2018-11-02T05:05:38.492Z,27.30
2018-11-02T05:08:07.885Z,27.73
2018-11-02T05:10:37.353Z,27.50
2018-11-02T05:13:07.184Z,28.23
2018-11-02T05:15:36.490Z,27.53
2018-11-02T05:18:05.917Z,27.73
2018-11-02T05:20:35.705Z,28.60
2018-11-02T05:23:05.051Z,27.80
2018-11-02T05:25:34.306Z,29.73
2018-11-02T05:28:04.144Z,29.13
2018-11-02T05:30:33.445Z,28.60
2018-11-02T05:33:02.760Z,30.50
2018-11-02T05:35:32.460Z,31.43
2018-11-02T05:38:01.839Z,31.83
2018-11-02T05:40:31.140Z,31.37
2018-11-02T05:43:00.800Z,30.93
2018-11-02T05:45:30.100Z,32.03
2018-11-02T05:47:59.462Z,34.53
2018-11-02T05:50:29.144Z,33.73
2018-11-02T05:52:58.618Z,33.30
2018-11-02T05:55:27.960Z,32.97
2018-11-02T05:57:57.833Z,33.43
2018-11-02T06:00:27.172Z,31.77
2018-11-02T06:02:56.426Z,33.03
2018-11-02T06:05:26.195Z,33.00
2018-11-02T06:07:55.501Z,33.97
2018-11-02T06:10:24.651Z,32.63
2018-11-02T06:12:54.287Z,32.67
2018-11-02T06:15:24.034Z,32.77
2018-11-02T06:17:53.241Z,32.93
2018-11-02T06:20:22.993Z,32.20
2018-11-02T06:22:52.348Z,33.13
2018-11-02T06:25:22.025Z,33.10
2018-11-02T06:27:51.492Z,34.83
2018-11-02T06:30:21.789Z,33.67
2018-11-02T06:32:50.950Z,35.07
2018-11-02T06:35:20.542Z,33.77
2018-11-02T06:37:49.675Z,34.77
2018-11-02T06:40:18.879Z,35.87
2018-11-02T06:42:48.908Z,33.40
2018-11-02T06:45:18.496Z,35.50
2018-11-02T06:47:48.170Z,35.53
2018-11-02T06:50:18.326Z,34.03
2018-11-02T06:52:47.924Z,37.30
2018-11-02T06:55:17.458Z,35.03
2018-11-02T06:57:47.481Z,36.00
2018-11-02T07:00:17.035Z,37.00
2018-11-02T07:02:46.613Z,35.20
2018-11-02T07:05:16.261Z,38.30
2018-11-02T07:07:45.959Z,35.67
2018-11-02T07:10:15.499Z,34.83
2018-11-02T07:12:45.568Z,35.93
2018-11-02T07:15:14.963Z,34.40
2018-11-02T07:17:44.464Z,33.70
2018-11-02T07:20:14.027Z,32.10
2018-11-02T07:22:43.343Z,35.47
2018-11-02T07:25:12.661Z,34.80
2018-11-02T07:27:42.436Z,34.23
2018-11-02T07:30:12.188Z,32.83
2018-11-02T07:32:41.614Z,34.50
2018-11-02T07:35:11.544Z,36.27
2018-11-02T07:37:40.993Z,36.00
2018-11-02T07:40:11.400Z,36.67
2018-11-02T07:42:40.983Z,37.33
2018-11-02T07:45:10.923Z,39.83
2018-11-02T07:47:40.179Z,38.37
2018-11-02T07:50:11.559Z,35.53
2018-11-02T07:52:41.224Z,33.90
2018-11-02T07:55:12.493Z,32.03
2018-11-02T07:57:41.868Z,38.80
2018-11-02T08:00:12.755Z,36.87
2018-11-02T08:02:44.017Z,34.73
2018-11-02T08:05:14.296Z,35.73
2018-11-02T08:07:44.031Z,37.63
2018-11-02T08:10:13.770Z,37.23
2018-11-02T08:12:43.057Z,37.57
2018-11-02T08:15:13.323Z,39.87
2018-11-02T08:17:43.217Z,37.37
2018-11-02T08:20:13.534Z,37.47
2018-11-02T08:22:43.384Z,49.40
2018-11-02T08:25:13.118Z,40.57
2018-11-02T08:27:42.667Z,40.47
2018-11-02T08:30:12.507Z,37.00
2018-11-02T08:32:41.716Z,37.83
2018-11-02T08:35:12.577Z,36.87
2018-11-02T08:37:42.459Z,37.77
2018-11-02T08:40:12.974Z,38.83
2018-11-02T08:42:42.598Z,37.43
2018-11-02T08:45:12.361Z,38.13
2018-11-02T08:47:41.679Z,37.03
2018-11-02T08:50:11.381Z,34.17
2018-11-02T08:52:40.786Z,39.77
2018-11-02T08:55:10.121Z,38.13
2018-11-02T08:57:39.584Z,39.17
2018-11-02T09:00:10.889Z,38.63
2018-11-02T09:02:40.532Z,40.23
2018-11-02T09:05:09.883Z,40.13
2018-11-02T09:07:39.501Z,38.37
2018-11-02T09:10:10.616Z,39.23
2018-11-02T09:12:39.934Z,39.10
2018-11-02T09:15:09.265Z,38.90
2018-11-02T09:17:38.567Z,38.40
2018-11-02T09:20:07.794Z,36.97
2018-11-02T09:22:37.180Z,36.07
2018-11-02T09:25:07.899Z,37.77
2018-11-02T09:27:37.268Z,39.07
2018-11-02T09:30:10.430Z,38.93
2018-11-02T09:32:39.664Z,35.93
2018-11-02T09:35:08.799Z,36.93
2018-11-02T09:37:38.501Z,37.80
2018-11-02T09:40:08.909Z,38.03
2018-11-02T09:42:38.182Z,36.73
2018-11-02T09:45:09.375Z,35.00
2018-11-02T09:47:38.703Z,35.23
2018-11-02T09:50:08.768Z,31.87
2018-11-02T09:52:38.817Z,33.27
2018-11-02T09:55:10.254Z,28.63
2018-11-02T09:57:40.012Z,26.20
2018-11-02T10:00:10.705Z,26.10
2018-11-02T10:02:39.993Z,26.67
2018-11-02T10:05:10.778Z,25.50
2018-11-02T10:07:40.862Z,23.43
2018-11-02T10:10:11.794Z,23.17
2018-11-02T10:12:41.042Z,22.07
2018-11-02T10:15:12.852Z,24.37
2018-11-02T10:17:42.596Z,22.90
2018-11-02T10:20:12.295Z,23.97
2018-11-02T10:22:41.762Z,24.20
2018-11-02T10:25:11.580Z,22.83
2018-11-02T10:27:42.651Z,22.17
2018-11-02T10:30:13.525Z,20.10
2018-11-02T10:32:44.924Z,20.20
2018-11-02T10:35:14.697Z,20.40
2018-11-02T10:37:44.398Z,21.73
2018-11-02T10:40:16.164Z,20.20
2018-11-02T10:42:49.132Z,20.10
2018-11-02T10:45:18.559Z,22.63
2018-11-02T10:47:48.397Z,22.53
2018-11-02T10:50:18.166Z,23.73
2018-11-02T10:52:47.761Z,22.47
2018-11-02T10:55:16.963Z,23.57
2018-11-02T10:57:46.749Z,24.60
2018-11-02T11:00:21.312Z,21.87
2018-11-02T11:02:50.904Z,24.23
2018-11-02T11:05:20.279Z,25.10
2018-11-02T11:07:49.807Z,25.20
2018-11-02T11:10:19.254Z,25.13
2018-11-02T11:12:48.759Z,25.83
2018-11-02T11:15:18.180Z,28.57
2018-11-02T11:17:47.725Z,28.23
2018-11-02T11:20:17.554Z,30.27
2018-11-02T11:22:47.068Z,31.43
2018-11-02T11:25:16.732Z,28.67
2018-11-02T11:27:45.957Z,26.80
2018-11-02T11:30:17.860Z,26.73
2018-11-02T11:32:48.217Z,29.77
2018-11-02T11:35:18.785Z,29.03
2018-11-02T11:37:48.271Z,31.13
2018-11-02T11:40:19.354Z,30.67
2018-11-02T11:42:48.695Z,29.83
2018-11-02T11:45:18.875Z,31.33
2018-11-02T11:47:48.534Z,30.43
2018-11-02T11:50:21.222Z,28.70
2018-11-02T11:52:51.785Z,31.00
2018-11-02T11:55:21.313Z,29.73
2018-11-02T11:57:50.946Z,26.90
2018-11-02T12:00:21.703Z,27.53
2018-11-02T12:02:51.506Z,30.00
2018-11-02T12:05:37.802Z,22.90
2018-11-02T12:08:07.337Z,27.93
2018-11-02T12:10:36.805Z,27.20
2018-11-02T12:13:06.872Z,24.57
2018-11-02T12:15:36.236Z,25.90
2018-11-02T12:18:05.821Z,26.30
2018-11-02T12:20:35.901Z,23.67
2018-11-02T12:23:05.566Z,24.23
2018-11-02T12:25:34.968Z,23.20
2018-11-02T12:28:05.090Z,24.93
2018-11-02T12:30:34.294Z,24.67
2018-11-02T12:33:03.595Z,25.10
2018-11-02T12:35:33.313Z,25.63
2018-11-02T12:38:02.570Z,25.63
2018-11-02T12:40:31.972Z,25.60
2018-11-02T12:43:01.716Z,26.73
2018-11-02T12:45:31.223Z,26.40
2018-11-02T12:48:00.516Z,25.20
2018-11-02T12:50:30.390Z,26.03
2018-11-02T12:53:00.307Z,26.77
2018-11-02T12:55:29.631Z,27.33
2018-11-02T12:57:59.370Z,26.97
2018-11-02T13:00:29.311Z,26.77
2018-11-02T13:02:58.842Z,26.27
2018-11-02T13:05:28.685Z,27.43
2018-11-02T13:07:57.921Z,27.90
2018-11-02T13:10:27.445Z,26.50
2018-11-02T13:12:57.090Z,27.53
2018-11-02T13:15:26.407Z,29.57
2018-11-02T13:17:55.861Z,28.87
2018-11-02T13:20:25.396Z,29.30
2018-11-02T13:22:54.635Z,28.50
2018-11-02T13:25:24.167Z,29.57
2018-11-02T13:27:53.788Z,29.30
2018-11-02T13:30:23.085Z,29.43
2018-11-02T13:32:52.304Z,28.43
2018-11-02T13:35:21.883Z,28.57
2018-11-02T13:37:51.643Z,27.17
2018-11-02T13:40:21.090Z,30.37
2018-11-02T13:42:50.589Z,30.40
2018-11-02T13:45:20.308Z,29.63
2018-11-02T13:47:49.741Z,30.67
2018-11-02T13:50:19.270Z,30.47
2018-11-02T13:52:48.648Z,30.53
2018-11-02T13:55:18.228Z,32.03
2018-11-02T13:57:47.998Z,29.83
2018-11-02T14:00:18.413Z,31.90
2018-11-02T14:02:48.174Z,31.43
2018-11-02T14:05:18.114Z,29.63
2018-11-02T14:07:47.549Z,30.37
2018-11-02T14:10:17.153Z,30.07
2018-11-02T14:12:46.785Z,30.33
2018-11-02T14:15:17.164Z,29.37
2018-11-02T14:17:46.711Z,31.23
2018-11-02T14:20:16.382Z,27.40
2018-11-02T14:22:45.873Z,30.63
2018-11-02T14:25:16.496Z,31.53
2018-11-02T14:27:46.070Z,29.77
2018-11-02T14:30:16.629Z,28.73
2018-11-02T14:32:46.837Z,30.10
2018-11-02T14:35:16.053Z,30.00
2018-11-02T14:37:45.582Z,27.23
2018-11-02T14:40:15.159Z,29.50
2018-11-02T14:42:44.421Z,27.50
2018-11-02T14:45:15.579Z,29.87
2018-11-02T14:47:46.214Z,26.37
2018-11-02T14:50:15.916Z,27.33
2018-11-02T14:52:45.593Z,26.47
2018-11-02T14:55:15.086Z,26.50
2018-11-02T14:57:44.924Z,25.93
2018-11-02T15:00:14.371Z,25.30
2018-11-02T15:02:43.901Z,26.90
2018-11-02T15:05:13.928Z,25.97
2018-11-02T15:07:43.811Z,26.30
2018-11-02T15:10:13.254Z,25.87
2018-11-02T15:12:42.639Z,24.50
2018-11-02T15:15:12.241Z,25.17
2018-11-02T15:17:41.669Z,24.33
2018-11-02T15:20:12.800Z,25.03
2018-11-02T15:22:42.318Z,25.67
2018-11-02T15:25:11.751Z,26.40
2018-11-02T15:27:41.255Z,24.17
2018-11-02T15:30:12.738Z,26.43
2018-11-02T15:32:43.003Z,24.93
2018-11-02T15:35:12.862Z,22.97
2018-11-02T15:37:42.538Z,23.57
2018-11-02T15:40:13.080Z,25.20
2018-11-02T15:42:42.760Z,27.57
2018-11-02T15:45:13.568Z,24.23
2018-11-02T15:47:43.241Z,25.97
2018-11-02T15:50:12.943Z,23.00
2018-11-02T15:52:42.590Z,22.50
2018-11-02T15:55:12.622Z,19.67
2018-11-02T15:57:42.457Z,20.43
2018-11-02T16:00:17.836Z,13.40
2018-11-02T16:02:48.935Z,10.87
2018-11-02T16:05:18.661Z,9.17
2018-11-02T16:07:48.623Z,8.00
2018-11-02T16:10:17.879Z,9.13
2018-11-02T16:12:47.399Z,7.60
2018-11-02T16:15:17.073Z,7.33
2018-11-02T16:17:46.839Z,9.33
2018-11-02T16:20:16.910Z,6.73
2018-11-02T16:22:46.455Z,6.87
2018-11-02T16:25:16.059Z,7.27
2018-11-02T16:27:45.746Z,5.80
2018-11-02T16:33:48.375Z,5.70
2018-11-02T16:36:17.971Z,5.13
2018-11-02T16:38:47.507Z,5.10
2018-11-02T16:41:17.360Z,5.27
2018-11-02T16:43:46.839Z,4.80
2018-11-02T16:46:16.116Z,5.10
2018-11-02T16:48:46.099Z,4.33
2018-11-02T16:51:15.487Z,4.33
2018-11-02T16:53:45.052Z,3.70
2018-11-02T16:56:14.942Z,4.40
2018-11-02T16:58:44.411Z,3.10
2018-11-02T17:01:13.793Z,2.63
2018-11-02T17:03:43.424Z,3.03
2018-11-02T17:06:12.833Z,3.30
2018-11-02T17:08:41.994Z,3.03
2018-11-02T17:11:11.650Z,3.50
2018-11-02T17:13:41.029Z,3.17
2018-11-02T17:16:10.273Z,3.60
2018-11-02T17:18:40.547Z,2.90
2018-11-02T17:21:10.022Z,2.57
2018-11-02T17:23:39.542Z,2.97
2018-11-02T17:26:09.209Z,2.80
2018-11-02T17:28:38.673Z,2.63
2018-11-02T17:31:07.986Z,2.60
2018-11-02T17:33:38.218Z,2.80
2018-11-02T17:36:07.781Z,3.03
2018-11-02T17:38:37.196Z,2.80
2018-11-02T17:41:07.178Z,2.87
2018-11-02T17:43:36.624Z,2.67
2018-11-02T17:46:06.339Z,2.43
2018-11-02T17:48:35.896Z,3.23
2018-11-02T17:51:05.424Z,2.53
2018-11-02T17:53:35.027Z,2.93
2018-11-02T17:56:04.892Z,3.00
2018-11-02T17:58:34.470Z,2.30
2018-11-02T18:01:03.779Z,3.93
2018-11-02T18:03:33.471Z,3.23
2018-11-02T18:06:03.117Z,2.77
2018-11-02T18:08:32.738Z,2.57
2018-11-02T18:11:02.170Z,2.97
2018-11-02T18:13:31.548Z,2.80
2018-11-02T18:16:01.556Z,3.20
2018-11-02T18:18:31.171Z,2.90
2018-11-02T18:21:00.490Z,2.97
2018-11-02T18:23:29.824Z,2.97
2018-11-02T18:25:59.442Z,2.13
2018-11-02T18:28:28.696Z,2.90
2018-11-02T18:30:58.069Z,2.73
2018-11-02T18:33:27.411Z,2.23
2018-11-02T18:35:56.611Z,2.90
2018-11-02T18:38:26.248Z,2.47
2018-11-02T18:40:55.785Z,2.33
2018-11-02T18:43:25.176Z,2.50
2018-11-02T18:45:54.812Z,2.50
2018-11-02T18:48:24.458Z,2.57
2018-11-02T18:50:53.646Z,2.17
2018-11-02T18:53:23.147Z,2.83
2018-11-02T18:55:53.112Z,2.60
2018-11-02T18:58:22.662Z,2.67
2018-11-02T19:00:53.165Z,3.70
2018-11-02T19:03:22.903Z,2.63
2018-11-02T19:05:52.267Z,2.40
2018-11-02T19:08:21.635Z,2.60
2018-11-02T19:10:51.189Z,2.50
2018-11-02T19:13:20.759Z,3.23
2018-11-02T19:15:50.247Z,2.70
2018-11-02T19:18:19.730Z,2.20
2018-11-02T19:20:49.234Z,2.70
2018-11-02T19:23:18.395Z,2.27
2018-11-02T19:25:47.982Z,2.20
2018-11-02T19:28:17.587Z,2.20
2018-11-02T19:30:47.043Z,3.63
2018-11-02T19:33:16.680Z,2.87
2018-11-02T19:35:46.319Z,2.80
2018-11-02T19:38:16.077Z,2.77
2018-11-02T19:40:45.926Z,2.40
2018-11-02T19:43:15.492Z,2.63
2018-11-02T19:45:45.226Z,3.00
2018-11-02T19:48:14.938Z,2.90
2018-11-02T19:50:44.342Z,2.87
2018-11-02T19:53:13.889Z,2.33
2018-11-02T19:55:43.417Z,2.40
2018-11-02T19:58:12.663Z,2.37
2018-11-02T20:00:42.153Z,2.67
2018-11-02T20:03:11.853Z,2.80
2018-11-02T20:05:41.272Z,2.40
2018-11-02T20:08:10.734Z,3.00
2018-11-02T20:10:40.348Z,3.10
2018-11-02T20:13:09.753Z,3.00
2018-11-02T20:15:39.221Z,2.80
2018-11-02T20:18:08.905Z,3.03
2018-11-02T20:20:38.501Z,2.97
2018-11-02T20:23:08.138Z,2.80
2018-11-02T20:25:37.976Z,3.73
2018-11-02T20:28:07.462Z,3.50
2018-11-02T20:30:37.068Z,3.77
2018-11-02T20:33:06.753Z,3.17
2018-11-02T20:35:36.003Z,3.73
2018-11-02T20:38:07.064Z,3.83
2018-11-02T20:40:36.727Z,3.30
2018-11-02T20:43:05.950Z,3.90
2018-11-02T20:45:35.583Z,3.73
2018-11-02T20:48:05.577Z,3.83
2018-11-02T20:50:34.955Z,3.90
2018-11-02T20:53:04.656Z,4.13
2018-11-02T20:55:34.396Z,4.40
2018-11-02T20:58:03.746Z,4.90
2018-11-02T21:00:33.212Z,4.20
2018-11-02T21:03:03.505Z,4.43
2018-11-02T21:05:32.782Z,4.30
2018-11-02T21:08:02.487Z,4.60
2018-11-02T21:10:31.956Z,5.07
2018-11-02T21:13:01.471Z,4.50
2018-11-02T21:15:30.897Z,6.30
2018-11-02T21:18:00.431Z,5.63
2018-11-02T21:20:29.852Z,5.53
2018-11-02T21:22:59.461Z,5.23
2018-11-02T21:25:28.864Z,5.90
2018-11-02T21:27:58.344Z,5.50
2018-11-02T21:30:27.860Z,6.10
2018-11-02T21:32:57.134Z,6.17
2018-11-02T21:35:26.543Z,5.40
2018-11-02T21:37:56.230Z,4.97
2018-11-02T21:40:26.185Z,5.30
2018-11-02T21:42:55.405Z,4.43
2018-11-02T21:45:25.253Z,4.30
2018-11-02T21:47:54.805Z,4.70
2018-11-02T21:50:24.028Z,4.33
2018-11-02T21:52:53.651Z,3.67
2018-11-02T21:55:23.750Z,2.80
2018-11-02T21:57:53.152Z,3.03
2018-11-02T22:00:23.594Z,2.60
2018-11-02T22:02:53.181Z,2.23
2018-11-02T22:05:22.351Z,2.70
2018-11-02T22:07:52.037Z,2.03
2018-11-02T22:10:21.888Z,2.10
2018-11-02T22:12:51.238Z,1.77
2018-11-02T22:15:21.027Z,1.87
2018-11-02T22:17:50.687Z,2.00
2018-11-02T22:20:20.015Z,1.60
2018-11-02T22:22:49.569Z,2.00
2018-11-02T22:25:19.224Z,2.20
2018-11-02T22:27:48.621Z,1.83
2018-11-02T22:30:18.474Z,1.80
2018-11-02T22:32:48.252Z,1.60
2018-11-02T22:35:17.922Z,2.30
2018-11-02T22:37:47.690Z,1.60
2018-11-02T22:40:17.639Z,1.47
2018-11-02T22:42:47.232Z,1.60
2018-11-02T22:45:16.993Z,1.30
2018-11-02T22:47:51.665Z,1.37
2018-11-02T22:50:21.272Z,1.20
2018-11-02T22:52:50.471Z,1.77
2018-11-02T22:55:19.911Z,1.63
2018-11-02T22:57:49.641Z,1.80
2018-11-02T23:00:19.692Z,1.53
2018-11-02T23:02:49.547Z,1.50
2018-11-02T23:05:19.192Z,1.70
2018-11-02T23:07:48.818Z,1.50
2018-11-02T23:10:18.655Z,1.63
2018-11-02T23:12:48.416Z,1.70
2018-11-02T23:15:17.910Z,2.47
2018-11-02T23:17:47.735Z,1.40
2018-11-02T23:20:17.471Z,1.60
2018-11-02T23:22:46.987Z,1.80
2018-11-02T23:25:16.617Z,1.97
2018-11-02T23:27:46.183Z,1.83
2018-11-02T23:30:15.606Z,1.87
2018-11-02T23:32:45.178Z,1.43
2018-11-02T23:35:14.895Z,1.70
2018-11-02T23:37:44.256Z,1.63
2018-11-02T23:40:14.013Z,1.50
2018-11-02T23:42:43.770Z,1.17
2018-11-02T23:45:13.317Z,1.53
2018-11-02T23:48:45.863Z,1.70
2018-11-02T23:51:15.697Z,1.70
2018-11-02T23:53:45.017Z,1.83
2018-11-02T23:56:14.416Z,1.77
2018-11-02T23:58:44.073Z,1.90
